Time;durP1;ratioP1;P1;durP2;ratioP2;P2;SDS_P1;SDS_P2;PMS_P1;PMS_P2;Temp;Humidity;BMP_temperature;BMP_pressure;BME280_temperature;BME280_humidity;BME280_pressure;Samples;Min_cycle;Max_cycle;Signal;HPM_P1;HPM_P2
2023/07/25 00:00:21;;;;;;;7.80;2.58;;;13.40;99.90;;;;;;5033812;28;20025;-82
2023/07/25 00:02:47;;;;;;;5.63;1.45;;;13.40;99.90;;;;;;5034673;28;20120;-82
2023/07/25 00:05:12;;;;;;;8.82;1.90;;;13.40;99.90;;;;;;5025765;28;20033;-84
2023/07/25 00:07:38;;;;;;;7.22;1.88;;;13.40;99.90;;;;;;5033636;28;20037;-82
2023/07/25 00:10:03;;;;;;;8.32;2.40;;;13.40;99.90;;;;;;5033774;28;20037;-82
2023/07/25 00:12:29;;;;;;;9.40;2.70;;;13.40;99.90;;;;;;5016259;28;20038;-82
2023/07/25 00:14:55;;;;;;;7.03;2.00;;;13.40;99.90;;;;;;5031053;28;20044;-82
2023/07/25 00:17:20;;;;;;;4.80;2.00;;;13.30;99.90;;;;;;5049606;28;20052;-82
2023/07/25 00:19:46;;;;;;;6.35;2.30;;;13.30;99.90;;;;;;5018134;28;20041;-82
2023/07/25 00:22:11;;;;;;;7.07;1.80;;;13.20;99.90;;;;;;5035528;28;20120;-81
2023/07/25 00:24:37;;;;;;;8.80;1.95;;;13.20;99.90;;;;;;5028294;28;20087;-82
2023/07/25 00:27:03;;;;;;;8.88;2.78;;;13.10;99.90;;;;;;5030826;28;20044;-83
2023/07/25 00:29:28;;;;;;;10.90;2.50;;;13.10;99.90;;;;;;5017060;28;20057;-83
2023/07/25 00:31:54;;;;;;;8.20;2.28;;;13.00;99.90;;;;;;5030919;28;20052;-82
2023/07/25 00:34:19;;;;;;;6.18;2.70;;;13.00;99.90;;;;;;5016706;28;20063;-82
2023/07/25 00:36:45;;;;;;;10.05;2.22;;;13.00;99.90;;;;;;5047714;28;20048;-82
2023/07/25 00:39:11;;;;;;;8.15;2.45;;;12.90;99.90;;;;;;5013397;28;20049;-83
2023/07/25 00:41:36;;;;;;;8.98;2.00;;;12.90;99.90;;;;;;5031335;28;20680;-82
2023/07/25 00:44:02;;;;;;;9.50;2.13;;;12.90;99.90;;;;;;5028901;28;20461;-82
2023/07/25 00:46:28;;;;;;;7.43;1.80;;;12.90;99.90;;;;;;5035034;28;20411;-82
2023/07/25 00:48:54;;;;;;;9.00;2.20;;;12.90;99.90;;;;;;5052382;28;20426;-82
2023/07/25 00:51:20;;;;;;;10.15;2.30;;;12.80;99.90;;;;;;5019504;28;20029;-82
2023/07/25 00:53:45;;;;;;;9.23;2.38;;;12.90;99.90;;;;;;5029111;28;20118;-83
2023/07/25 00:56:13;;;;;;;5.20;1.80;;;12.80;99.90;;;;;;5015204;28;20045;-82
2023/07/25 00:58:39;;;;;;;3.92;2.05;;;12.90;99.90;;;;;;5028818;28;20044;-82
2023/07/25 01:01:06;;;;;;;6.18;2.58;;;12.80;99.90;;;;;;5028649;28;20040;-82
2023/07/25 01:03:37;;;;;;;8.13;2.25;;;12.80;99.90;;;;;;5050033;28;20342;-83
2023/07/25 01:06:05;;;;;;;7.47;2.20;;;12.80;99.90;;;;;;5031832;28;20044;-82
2023/07/25 01:08:31;;;;;;;12.38;2.25;;;12.80;99.90;;;;;;5018870;28;20154;-82
2023/07/25 01:10:57;;;;;;;8.75;2.00;;;12.80;99.90;;;;;;5034953;28;20041;-82
2023/07/25 01:13:24;;;;;;;7.32;2.00;;;12.80;99.90;;;;;;5019319;28;20054;-82
2023/07/25 01:15:51;;;;;;;11.73;2.15;;;12.70;99.90;;;;;;5048712;28;20036;-82
2023/07/25 01:18:18;;;;;;;6.85;2.10;;;13.20;99.90;;;;;;5017369;28;20041;-83
2023/07/25 01:20:47;;;;;;;5.82;1.92;;;12.80;99.90;;;;;;5053839;28;20033;-82
2023/07/25 01:23:14;;;;;;;7.43;2.35;;;12.70;99.90;;;;;;5039280;28;20110;-82
2023/07/25 01:25:39;;;;;;;6.78;2.20;;;12.80;99.90;;;;;;5020123;28;20037;-84
2023/07/25 01:28:05;;;;;;;9.20;1.98;;;12.80;99.90;;;;;;5054138;28;20040;-82
2023/07/25 01:30:31;;;;;;;7.13;2.50;;;12.80;99.90;;;;;;5038086;28;20040;-83
2023/07/25 01:32:57;;;;;;;5.05;2.00;;;12.80;99.90;;;;;;5020010;28;20116;-82
2023/07/25 01:35:22;;;;;;;10.60;3.25;;;12.70;99.90;;;;;;5034841;28;20083;-82
2023/07/25 01:37:48;;;;;;;4.55;2.20;;;12.70;99.90;;;;;;5052265;28;20036;-82
2023/07/25 01:40:14;;;;;;;9.20;2.10;;;12.70;99.90;;;;;;5039562;28;20053;-82
2023/07/25 01:42:39;;;;;;;5.97;2.28;;;12.70;99.90;;;;;;5053123;28;20029;-82
2023/07/25 01:45:06;;;;;;;13.32;2.60;;;12.70;99.90;;;;;;5037041;28;20060;-83
2023/07/25 01:47:31;;;;;;;11.90;2.33;;;12.70;99.90;;;;;;5038334;28;20090;-82
2023/07/25 01:49:57;;;;;;;9.48;2.22;;;12.70;99.90;;;;;;5022928;28;20040;-82
2023/07/25 01:52:22;;;;;;;6.80;2.20;;;12.80;99.90;;;;;;5036644;28;20045;-82
2023/07/25 01:54:49;;;;;;;9.23;2.10;;;12.70;99.90;;;;;;5035445;28;20047;-82
2023/07/25 01:57:15;;;;;;;5.60;1.70;;;12.80;99.90;;;;;;5018991;28;20345;-82
2023/07/25 01:59:41;;;;;;;9.02;1.95;;;12.90;99.90;;;;;;5055117;28;20033;-82
2023/07/25 02:02:07;;;;;;;9.02;2.10;;;12.90;99.90;;;;;;5017065;28;20044;-82
2023/07/25 02:04:32;;;;;;;12.23;2.40;;;12.90;99.90;;;;;;5038690;28;20044;-83
2023/07/25 02:06:58;;;;;;;4.25;1.50;;;12.90;99.90;;;;;;5054411;28;20041;-83
2023/07/25 02:09:23;;;;;;;9.80;1.90;;;12.90;99.90;;;;;;5039132;28;20043;-83
2023/07/25 02:11:49;;;;;;;4.75;1.42;;;12.80;99.90;;;;;;5018090;28;20033;-82
2023/07/25 02:14:14;;;;;;;9.63;2.70;;;12.90;99.90;;;;;;5052124;28;20063;-82
2023/07/25 02:16:40;;;;;;;10.45;2.25;;;13.30;99.90;;;;;;5033813;28;20036;-83
2023/07/25 02:19:06;;;;;;;7.70;1.75;;;12.90;99.90;;;;;;5033651;28;20045;-82
2023/07/25 02:21:32;;;;;;;5.72;1.52;;;12.90;99.90;;;;;;5035940;28;20115;-82
2023/07/25 02:23:58;;;;;;;5.80;1.98;;;12.90;99.90;;;;;;5021497;28;20040;-82
2023/07/25 02:26:23;;;;;;;9.68;1.95;;;12.90;99.90;;;;;;5037511;28;20029;-83
2023/07/25 02:28:49;;;;;;;9.65;2.28;;;12.90;99.90;;;;;;5047893;28;20495;-82
2023/07/25 02:31:15;;;;;;;8.10;1.85;;;12.90;99.90;;;;;;5035842;28;20053;-83
2023/07/25 02:33:40;;;;;;;4.53;1.80;;;12.90;99.90;;;;;;5029875;28;20045;-82
2023/07/25 02:36:06;;;;;;;11.00;2.10;;;12.90;99.90;;;;;;5034029;28;20522;-82
2023/07/25 02:38:32;;;;;;;9.18;2.97;;;12.90;99.90;;;;;;5028234;28;20052;-82
2023/07/25 02:40:57;;;;;;;7.30;1.90;;;12.80;99.90;;;;;;5034176;28;20428;-82
2023/07/25 02:43:23;;;;;;;9.50;2.05;;;12.80;99.90;;;;;;5033971;28;20040;-84
2023/07/25 02:45:52;;;;;;;9.70;2.03;;;12.80;99.90;;;;;;5053516;28;20044;-82
2023/07/25 02:48:19;;;;;;;12.32;2.15;;;12.80;99.90;;;;;;5033998;28;20045;-82
2023/07/25 02:50:44;;;;;;;14.07;1.98;;;12.80;99.90;;;;;;5033976;28;20060;-82
2023/07/25 02:53:10;;;;;;;8.15;1.55;;;12.80;99.90;;;;;;5034581;28;20037;-82
2023/07/25 02:55:37;;;;;;;6.68;2.00;;;13.10;99.90;;;;;;5037417;28;20502;-83
2023/07/25 02:58:02;;;;;;;7.13;1.58;;;12.80;99.90;;;;;;5037495;28;20037;-82
2023/07/25 03:00:30;;;;;;;7.82;2.35;;;12.80;99.90;;;;;;5037385;28;20056;-82
2023/07/25 03:02:56;;;;;;;6.95;1.73;;;12.80;99.90;;;;;;5050681;28;20168;-82
2023/07/25 03:05:21;;;;;;;8.05;1.60;;;12.80;99.90;;;;;;5032629;28;20069;-82
2023/07/25 03:07:47;;;;;;;5.13;2.10;;;12.80;99.90;;;;;;5048920;28;20032;-81
2023/07/25 03:10:12;;;;;;;7.05;1.90;;;12.80;99.90;;;;;;5032739;28;20043;-83
2023/07/25 03:12:38;;;;;;;8.18;2.15;;;12.80;99.90;;;;;;5018699;28;20061;-82
2023/07/25 03:15:04;;;;;;;8.90;2.88;;;12.80;99.90;;;;;;5037569;28;20136;-82
2023/07/25 03:17:30;;;;;;;4.40;1.73;;;12.80;99.90;;;;;;5033588;28;20048;-82
2023/07/25 03:19:56;;;;;;;9.23;1.63;;;12.90;99.90;;;;;;5038519;28;20162;-82
2023/07/25 03:22:21;;;;;;;9.80;2.38;;;12.90;99.90;;;;;;5051258;28;20055;-82
2023/07/25 03:24:48;;;;;;;6.20;1.80;;;12.90;99.90;;;;;;5032631;28;20666;-82
2023/07/25 03:27:14;;;;;;;8.88;1.70;;;13.00;99.90;;;;;;5019689;28;20080;-85
2023/07/25 03:29:40;;;;;;;6.85;1.70;;;13.00;99.90;;;;;;5017694;28;20048;-82
2023/07/25 03:32:06;;;;;;;11.80;2.08;;;13.10;99.90;;;;;;5033349;28;20041;-82
2023/07/25 03:34:32;;;;;;;6.28;1.95;;;13.10;99.90;;;;;;5034456;28;20043;-82
2023/07/25 03:36:57;;;;;;;12.00;2.50;;;13.10;99.90;;;;;;5016484;28;20120;-82
2023/07/25 03:39:23;;;;;;;7.50;2.20;;;13.20;99.90;;;;;;5034422;28;20033;-82
2023/07/25 03:41:48;;;;;;;7.95;2.28;;;13.10;99.90;;;;;;5020016;28;20044;-82
2023/07/25 03:44:18;;;;;;;7.55;2.40;;;13.10;99.90;;;;;;5049454;28;20039;-83
2023/07/25 03:46:44;;;;;;;4.20;1.75;;;13.30;99.90;;;;;;5052800;28;20399;-83
2023/07/25 03:49:11;;;;;;;10.40;2.20;;;13.10;99.90;;;;;;5036612;28;20040;-82
2023/07/25 03:51:36;;;;;;;9.35;2.30;;;13.20;99.90;;;;;;5035279;28;20067;-82
2023/07/25 03:54:08;;;;;;;8.90;2.22;;;13.10;99.90;;;;;;5034115;28;20049;-82
2023/07/25 03:56:34;;;;;;;11.13;2.50;;;13.10;99.90;;;;;;5047750;28;20056;-83
2023/07/25 03:59:00;;;;;;;9.18;2.58;;;13.10;99.90;;;;;;5049747;28;20396;-83
2023/07/25 04:01:27;;;;;;;6.75;2.10;;;13.10;99.90;;;;;;5034451;28;20113;-83
2023/07/25 04:03:55;;;;;;;12.20;2.67;;;13.10;99.90;;;;;;5018649;28;20049;-83
2023/07/25 04:06:21;;;;;;;6.43;1.67;;;13.10;99.90;;;;;;5019705;28;20831;-82
2023/07/25 04:08:46;;;;;;;5.43;2.00;;;13.10;99.90;;;;;;5017393;28;20029;-82
2023/07/25 04:11:13;;;;;;;12.23;2.55;;;13.20;99.90;;;;;;5021476;28;20048;-83
2023/07/25 04:13:38;;;;;;;6.82;2.17;;;13.10;99.90;;;;;;5031809;28;20381;-82
2023/07/25 04:16:04;;;;;;;8.20;1.55;;;13.10;99.90;;;;;;5017314;28;20059;-82
2023/07/25 04:18:30;;;;;;;8.38;2.35;;;13.10;99.90;;;;;;5033738;28;20040;-84
2023/07/25 04:20:55;;;;;;;11.30;1.98;;;13.10;99.90;;;;;;5033678;28;20041;-82
2023/07/25 04:23:22;;;;;;;11.23;2.78;;;13.10;99.90;;;;;;5052626;28;20483;-82
2023/07/25 04:25:50;;;;;;;7.97;2.50;;;13.10;99.90;;;;;;5015938;28;20033;-82
2023/07/25 04:28:16;;;;;;;6.65;2.53;;;13.10;99.90;;;;;;5014724;28;20041;-82
2023/07/25 04:30:42;;;;;;;9.50;2.00;;;13.20;99.90;;;;;;5047670;28;20443;-82
2023/07/25 04:33:07;;;;;;;9.15;1.95;;;13.20;99.90;;;;;;5048367;28;20029;-83
2023/07/25 04:35:33;;;;;;;5.70;1.52;;;13.20;99.90;;;;;;5043039;28;20041;-83
2023/07/25 04:37:59;;;;;;;5.30;2.00;;;13.20;99.90;;;;;;5030319;28;20463;-83
2023/07/25 04:40:25;;;;;;;6.10;2.20;;;13.30;99.90;;;;;;5055333;28;20033;-82
2023/07/25 04:42:50;;;;;;;8.20;2.08;;;13.40;99.90;;;;;;5035267;28;20097;-82
2023/07/25 04:45:16;;;;;;;11.98;2.35;;;13.40;99.90;;;;;;5023986;28;20112;-82
2023/07/25 04:47:42;;;;;;;7.82;2.00;;;13.60;99.90;;;;;;5042438;28;20079;-82
2023/07/25 04:50:08;;;;;;;6.65;1.98;;;13.50;99.90;;;;;;5041995;28;20033;-82
2023/07/25 04:52:34;;;;;;;5.25;2.00;;;13.70;99.90;;;;;;5044515;28;20043;-82
2023/07/25 04:54:59;;;;;;;5.75;1.77;;;13.80;99.90;;;;;;5026078;28;20060;-82
2023/07/25 04:57:25;;;;;;;6.82;1.58;;;13.80;99.90;;;;;;5044695;28;20037;-81
2023/07/25 04:59:51;;;;;;;11.43;2.95;;;13.80;99.90;;;;;;5042066;28;20050;-81
2023/07/25 05:02:19;;;;;;;6.20;1.80;;;13.90;99.90;;;;;;5038838;28;20029;-83
2023/07/25 05:04:44;;;;;;;6.20;1.50;;;14.00;99.90;;;;;;5024355;28;21469;-81
2023/07/25 05:07:10;;;;;;;11.27;1.80;;;14.10;99.90;;;;;;5054521;28;20029;-83
2023/07/25 05:09:35;;;;;;;8.77;1.60;;;14.20;99.90;;;;;;5052219;28;20052;-82
2023/07/25 05:12:04;;;;;;;13.32;2.08;;;14.30;99.90;;;;;;5057248;28;20072;-83
2023/07/25 05:14:30;;;;;;;9.05;1.30;;;14.30;99.90;;;;;;5045223;28;20040;-83
2023/07/25 05:16:55;;;;;;;8.10;1.38;;;14.40;99.90;;;;;;5061275;28;20037;-83
2023/07/25 05:19:21;;;;;;;10.70;1.40;;;15.00;99.90;;;;;;5048824;28;20037;-83
2023/07/25 05:21:47;;;;;;;7.07;1.10;;;14.90;99.90;;;;;;5045306;28;20045;-82
2023/07/25 05:24:14;;;;;;;6.85;1.88;;;15.00;99.90;;;;;;5026085;28;20037;-83
2023/07/25 05:26:41;;;;;;;9.50;1.77;;;15.20;99.90;;;;;;5055450;28;20098;-82
2023/07/25 05:29:06;;;;;;;7.07;1.25;;;15.40;99.90;;;;;;5058133;28;20071;-83
2023/07/25 05:31:32;;;;;;;7.95;1.33;;;15.80;99.90;;;;;;5043523;28;20106;-83
2023/07/25 05:33:58;;;;;;;5.57;1.15;;;16.40;99.90;;;;;;5059050;28;20483;-84
2023/07/25 05:36:23;;;;;;;8.93;0.95;;;17.10;99.90;;;;;;5040247;28;20056;-83
2023/07/25 05:38:49;;;;;;;8.00;1.50;;;17.90;99.90;;;;;;5057777;28;20041;-83
2023/07/25 05:41:14;;;;;;;8.90;1.58;;;18.60;99.90;;;;;;5056109;28;20079;-83
2023/07/25 05:43:40;;;;;;;7.25;1.67;;;19.30;99.90;;;;;;5035910;28;20052;-83
2023/07/25 05:46:07;;;;;;;8.57;1.27;;;19.90;99.90;;;;;;5060199;28;20037;-83
2023/07/25 05:48:33;;;;;;;11.13;1.15;;;20.80;99.90;;;;;;5060498;28;20036;-83
2023/07/25 05:50:58;;;;;;;7.45;0.95;;;21.70;99.90;;;;;;5045499;28;20076;-83
2023/07/25 05:53:24;;;;;;;6.43;1.30;;;22.50;99.90;;;;;;5055748;28;20099;-83
2023/07/25 05:55:50;;;;;;;10.52;1.80;;;23.00;99.90;;;;;;5042841;28;20045;-83
2023/07/25 05:58:17;;;;;;;4.00;0.85;;;23.30;99.90;;;;;;5026612;28;20051;-83
2023/07/25 06:00:44;;;;;;;9.13;1.05;;;23.80;99.90;;;;;;5058324;28;20538;-84
2023/07/25 06:03:12;;;;;;;6.20;1.42;;;24.20;99.90;;;;;;5054691;28;20024;-83
2023/07/25 06:05:38;;;;;;;5.60;1.00;;;24.00;99.90;;;;;;5036995;28;20436;-83
2023/07/25 06:08:04;;;;;;;5.45;1.42;;;24.30;99.90;;;;;;5040121;28;20040;-83
2023/07/25 06:10:29;;;;;;;5.55;0.98;;;24.70;99.90;;;;;;5045126;28;20044;-83
2023/07/25 06:12:56;;;;;;;7.07;1.38;;;24.80;99.90;;;;;;5036105;28;20051;-84
2023/07/25 06:15:22;;;;;;;7.38;1.02;;;25.00;99.90;;;;;;5037114;28;20096;-83
2023/07/25 06:17:49;;;;;;;7.95;1.27;;;25.10;99.90;;;;;;5057455;28;20033;-84
2023/07/25 06:20:15;;;;;;;8.93;1.15;;;24.70;99.70;;;;;;5057821;28;20037;-84
2023/07/25 06:22:40;;;;;;;10.05;2.13;;;24.90;99.90;;;;;;5049875;28;20053;-83
2023/07/25 06:25:09;;;;;;;10.00;1.65;;;25.20;99.90;;;;;;5019003;28;20061;-84
2023/07/25 06:27:34;;;;;;;10.45;1.33;;;24.80;99.10;;;;;;5031918;28;20041;-84
2023/07/25 06:30:02;;;;;;;6.00;0.93;;;24.60;99.60;;;;;;5022705;28;20068;-83
2023/07/25 06:32:28;;;;;;;4.82;1.35;;;24.70;99.60;;;;;;5050485;28;20525;-84
2023/07/25 06:34:53;;;;;;;6.22;1.10;;;24.70;98.60;;;;;;5014423;28;20068;-84
2023/07/25 06:37:19;;;;;;;5.95;1.35;;;24.80;98.90;;;;;;5036219;28;20335;-84
2023/07/25 06:39:44;;;;;;;7.20;1.17;;;24.70;99.00;;;;;;5047398;28;20059;-84
2023/07/25 06:42:10;;;;;;;10.10;1.27;;;24.80;98.80;;;;;;5045361;28;20048;-83
2023/07/25 06:44:36;;;;;;;4.63;1.00;;;25.00;98.10;;;;;;5044604;28;20037;-84
2023/07/25 06:47:01;;;;;;;5.53;0.82;;;25.00;97.70;;;;;;5050860;28;20077;-84
2023/07/25 06:49:27;;;;;;;4.13;0.75;;;25.00;97.80;;;;;;5034481;28;20036;-84
2023/07/25 06:51:55;;;;;;;3.20;0.85;;;25.70;97.10;;;;;;5036832;28;20060;-84
2023/07/25 06:54:21;;;;;;;5.03;1.00;;;26.30;96.80;;;;;;5037109;28;20124;-84
2023/07/25 06:56:47;;;;;;;5.63;1.00;;;26.30;95.60;;;;;;5054232;28;20073;-83
2023/07/25 06:59:12;;;;;;;4.40;0.60;;;26.10;95.40;;;;;;5052785;28;20166;-83
2023/07/25 07:01:38;;;;;;;5.85;0.80;;;25.90;95.30;;;;;;5029039;28;20069;-83
2023/07/25 07:04:03;;;;;;;5.88;1.00;;;26.00;95.20;;;;;;5051499;28;20069;-83
2023/07/25 07:06:29;;;;;;;5.00;0.85;;;26.10;94.70;;;;;;5051068;28;20422;-83
2023/07/25 07:08:55;;;;;;;6.43;0.90;;;26.90;95.00;;;;;;5054983;28;20041;-83
2023/07/25 07:11:20;;;;;;;1.95;0.65;;;27.70;94.40;;;;;;5023443;28;20068;-84
2023/07/25 07:13:46;;;;;;;4.50;0.85;;;27.90;93.10;;;;;;5049091;28;20112;-84
2023/07/25 07:16:11;;;;;;;5.45;0.80;;;28.50;92.30;;;;;;5049620;28;20041;-84
2023/07/25 07:18:37;;;;;;;5.70;1.00;;;28.20;91.50;;;;;;5040191;28;20045;-82
2023/07/25 07:21:08;;;;;;;5.22;0.80;;;28.20;90.90;;;;;;5036794;28;20063;-83
2023/07/25 07:23:37;;;;;;;2.67;0.60;;;28.20;90.30;;;;;;5022925;28;20041;-80
2023/07/25 07:26:03;;;;;;;2.35;0.50;;;27.50;90.40;;;;;;5054953;28;20048;-80
2023/07/25 07:28:29;;;;;;;4.80;0.47;;;26.90;91.30;;;;;;5036967;28;20044;-81
2023/07/25 07:30:55;;;;;;;4.38;0.60;;;26.10;91.40;;;;;;5055045;28;20048;-83
2023/07/25 07:33:21;;;;;;;4.07;0.50;;;25.80;91.80;;;;;;5052759;28;20036;-84
2023/07/25 07:35:46;;;;;;;2.70;0.75;;;25.20;92.10;;;;;;5030336;28;20123;-83
2023/07/25 07:38:12;;;;;;;5.20;1.15;;;24.90;92.30;;;;;;5051867;28;20064;-84
2023/07/25 07:40:38;;;;;;;2.60;0.65;;;24.80;92.20;;;;;;5016305;28;20048;-82
2023/07/25 07:43:03;;;;;;;16.77;1.00;;;24.80;92.60;;;;;;5051616;28;20036;-83
2023/07/25 07:45:30;;;;;;;4.22;0.43;;;24.40;92.80;;;;;;5022165;28;20066;-86
2023/07/25 07:47:56;;;;;;;6.85;0.95;;;24.40;93.20;;;;;;5035692;28;20053;-84
2023/07/25 07:50:21;;;;;;;2.20;0.47;;;24.30;92.90;;;;;;5036311;28;20128;-83
2023/07/25 07:52:48;;;;;;;4.70;0.75;;;24.10;93.80;;;;;;5052834;28;20033;-82
2023/07/25 07:55:15;;;;;;;3.47;0.40;;;24.30;93.70;;;;;;5052565;28;20040;-83
2023/07/25 07:57:42;;;;;;;6.03;0.60;;;23.70;93.40;;;;;;5024973;28;20090;-84
2023/07/25 08:00:09;;;;;;;4.13;0.68;;;23.50;93.60;;;;;;5052159;28;20124;-84
2023/07/25 08:02:34;;;;;;;1.80;0.43;;;23.30;93.90;;;;;;5053950;28;20041;-83
2023/07/25 08:05:00;;;;;;;4.57;0.75;;;23.30;93.30;;;;;;5031413;28;20593;-83
2023/07/25 08:07:32;;;;;;;2.70;0.38;;;23.30;94.40;;;;;;5038652;28;20097;-83
2023/07/25 08:09:57;;;;;;;5.47;0.60;;;23.30;94.10;;;;;;5017218;28;20059;-83
2023/07/25 08:12:23;;;;;;;2.30;0.40;;;23.40;94.20;;;;;;5051599;28;20041;-84
2023/07/25 08:14:49;;;;;;;6.88;0.70;;;22.90;94.40;;;;;;5035874;28;20033;-84
2023/07/25 08:17:15;;;;;;;3.38;0.80;;;22.40;94.20;;;;;;5037435;28;20082;-83
2023/07/25 08:19:41;;;;;;;3.85;0.50;;;22.20;95.10;;;;;;5055235;28;20132;-82
2023/07/25 08:22:09;;;;;;;3.17;0.95;;;21.80;94.70;;;;;;5050384;28;20037;-82
2023/07/25 08:24:34;;;;;;;8.90;0.57;;;21.60;95.30;;;;;;5039716;28;20068;-83
2023/07/25 08:27:00;;;;;;;8.02;0.60;;;21.30;96.00;;;;;;5039318;28;20094;-83
2023/07/25 08:29:26;;;;;;;3.92;0.77;;;21.30;97.00;;;;;;5035366;28;20071;-83
2023/07/25 08:31:56;;;;;;;5.38;0.40;;;21.40;96.50;;;;;;5041152;28;20036;-88
2023/07/25 08:34:24;;;;;;;4.28;0.80;;;21.10;96.70;;;;;;5044426;28;20476;-89
2023/07/25 08:36:50;;;;;;;4.30;1.10;;;21.30;96.70;;;;;;5053313;28;20040;-82
2023/07/25 08:39:16;;;;;;;2.13;0.50;;;21.30;97.00;;;;;;5038634;28;20040;-82
2023/07/25 08:42:06;;;;;;;3.30;0.82;;;20.90;96.70;;;;;;5052700;28;20037;-81
2023/07/25 08:44:34;;;;;;;3.08;0.63;;;21.20;96.50;;;;;;5047908;28;20039;-80
2023/07/25 08:47:05;;;;;;;4.43;0.40;;;21.40;96.10;;;;;;5026662;28;20041;-82
2023/07/25 08:49:35;;;;;;;1.98;0.70;;;21.50;95.80;;;;;;5033782;28;20552;-82
2023/07/25 08:52:03;;;;;;;3.33;0.40;;;21.70;95.50;;;;;;5032232;28;20033;-83
2023/07/25 08:54:34;;;;;;;12.48;1.48;;;21.70;95.60;;;;;;5046582;28;20806;-82
2023/07/25 08:57:00;;;;;;;4.95;0.43;;;21.70;95.60;;;;;;5012602;28;20069;-84
2023/07/25 08:59:26;;;;;;;4.10;0.50;;;22.20;95.20;;;;;;5050860;28;20072;-83
2023/07/25 09:01:52;;;;;;;3.25;0.40;;;21.90;95.30;;;;;;5054453;28;20036;-83
2023/07/25 09:04:19;;;;;;;1.58;0.47;;;22.10;95.80;;;;;;5024329;28;20067;-84
2023/07/25 09:06:45;;;;;;;3.90;0.57;;;22.10;95.00;;;;;;5037492;28;20527;-84
2023/07/25 09:09:11;;;;;;;1.67;0.38;;;22.10;95.30;;;;;;5045146;28;20045;-83
2023/07/25 09:11:37;;;;;;;2.60;0.40;;;22.10;95.30;;;;;;5048236;28;20044;-82
2023/07/25 09:14:03;;;;;;;2.60;0.55;;;21.90;94.50;;;;;;5037477;28;20056;-83
2023/07/25 09:16:30;;;;;;;3.35;0.60;;;21.50;95.10;;;;;;5032971;28;20076;-84
2023/07/25 09:18:55;;;;;;;3.90;0.68;;;21.30;95.80;;;;;;5019591;28;20057;-83
2023/07/25 09:21:21;;;;;;;2.65;0.60;;;21.40;96.30;;;;;;5054355;28;20051;-83
2023/07/25 09:23:59;;;;;;;3.42;0.50;;;21.60;95.50;;;;;;5036435;28;20463;-83
2023/07/25 09:26:30;;;;;;;3.83;0.60;;;21.60;96.00;;;;;;5026242;28;20039;-83
2023/07/25 09:29:02;;;;;;;1.48;0.30;;;21.40;95.60;;;;;;5043940;28;20175;-84
2023/07/25 09:31:28;;;;;;;2.80;0.50;;;21.50;95.60;;;;;;5038749;28;20112;-82
2023/07/25 09:33:55;;;;;;;5.20;0.40;;;21.80;95.90;;;;;;5055797;28;20037;-83
2023/07/25 09:36:21;;;;;;;1.35;0.35;;;21.70;96.10;;;;;;5035273;28;20052;-82
2023/07/25 09:38:54;;;;;;;1.58;0.40;;;21.70;95.70;;;;;;5034128;28;20055;-82
2023/07/25 09:42:00;;;;;;;2.22;0.77;;;21.80;94.70;;;;;;5050404;28;20045;-82
2023/07/25 09:45:21;;;;;;;4.85;1.00;;;21.80;94.50;;;;;;5022599;28;20458;-82
2023/07/25 09:48:31;;;;;;;5.28;0.73;;;21.90;94.90;;;;;;5031555;28;20057;-81
2023/07/25 09:50:58;;;;;;;3.88;0.70;;;22.00;95.20;;;;;;5057878;28;20056;-85
2023/07/25 09:53:24;;;;;;;2.42;0.68;;;22.20;95.60;;;;;;5018103;28;20064;-82
2023/07/25 09:55:50;;;;;;;4.35;0.47;;;22.20;94.80;;;;;;5051934;28;20041;-83
2023/07/25 09:58:39;;;;;;;2.00;0.35;;;22.20;94.40;;;;;;5030060;28;20095;-83
2023/07/25 10:01:09;;;;;;;2.63;0.55;;;22.30;94.10;;;;;;5038808;28;20135;-81
2023/07/25 10:03:36;;;;;;;6.15;1.15;;;22.50;95.60;;;;;;5053525;28;20542;-82
2023/07/25 10:06:02;;;;;;;2.17;0.40;;;22.50;94.40;;;;;;5038197;28;20488;-83
2023/07/25 10:08:34;;;;;;;2.20;0.50;;;22.60;95.70;;;;;;5053989;28;20048;-83
2023/07/25 10:11:00;;;;;;;3.33;0.63;;;22.70;94.10;;;;;;5033333;28;20037;-84
2023/07/25 10:13:26;;;;;;;5.28;0.45;;;22.50;94.90;;;;;;5041549;28;20095;-81
2023/07/25 10:15:54;;;;;;;4.47;0.63;;;22.50;94.60;;;;;;5039497;28;20033;-85
2023/07/25 10:18:23;;;;;;;3.83;0.90;;;22.30;93.90;;;;;;5039099;28;20033;-86
2023/07/25 10:21:15;;;;;;;4.63;0.52;;;22.20;94.60;;;;;;5045478;28;20025;-87
2023/07/25 10:24:55;;;;;;;7.13;0.50;;;21.70;95.50;;;;;;5034612;28;20101;-87
2023/07/25 10:27:36;;;;;;;8.18;0.50;;;21.30;95.10;;;;;;5043953;28;20504;-84
2023/07/25 10:30:48;;;;;;;2.33;0.47;;;21.00;95.20;;;;;;5039940;28;20037;-87
2023/07/25 10:33:38;;;;;;;3.05;0.60;;;21.10;95.40;;;;;;5028306;28;20037;-87
2023/07/25 10:36:48;;;;;;;5.03;0.30;;;21.40;95.70;;;;;;5030549;28;20095;-83
2023/07/25 10:40:30;;;;;;;1.90;0.38;;;21.20;96.00;;;;;;4980329;28;20054;-84
2023/07/25 10:43:03;;;;;;;5.25;0.75;;;21.00;95.10;;;;;;4958698;28;20055;-84
2023/07/25 10:45:46;;;;;;;;;;;21.00;96.10;;;;;;4954519;28;20102;-87
2023/07/25 10:49:05;;;;;;;2.90;0.47;;;21.10;96.20;;;;;;4978662;28;19913;-85
2023/07/25 10:52:37;;;;;;;7.53;0.40;;;21.40;96.20;;;;;;4958720;28;20039;-88
2023/07/25 10:59:51;;;;;;;2.83;0.40;;;21.50;95.30;;;;;;4965240;28;20085;-89
2023/07/25 11:03:24;;;;;;;4.85;0.50;;;21.40;95.40;;;;;;4993812;28;20069;-89
2023/07/25 11:09:41;;;;;;;5.78;0.88;;;21.40;95.10;;;;;;5036104;28;20040;-87
2023/07/25 11:12:10;;;;;;;3.58;0.50;;;21.50;95.30;;;;;;5042462;28;20059;-85
2023/07/25 11:14:52;;;;;;;2.45;0.40;;;21.40;95.10;;;;;;5031568;28;20045;-85
2023/07/25 11:17:31;;;;;;;6.25;0.40;;;21.20;95.30;;;;;;5042014;28;20049;-85
2023/07/25 11:23:44;;;;;;;2.95;0.50;;;21.20;96.40;;;;;;5061613;28;20071;-84
2023/07/25 11:26:33;;;;;;;5.22;0.60;;;21.20;95.20;;;;;;5061297;28;20055;-86
2023/07/25 11:33:53;;;;;;;3.70;0.63;;;21.60;95.30;;;;;;4968235;28;21361;-87
2023/07/25 11:41:05;;;;;;;4.90;0.77;;;21.50;94.50;;;;;;4912828;29;20127;-89
2023/07/25 11:55:09;;;;;;;3.40;0.40;;;20.20;95.10;;;;;;4864815;29;20160;-91
2023/07/25 11:58:15;;;;;;;1.85;0.65;;;20.00;96.10;;;;;;4847307;29;20130;-91
2023/07/25 12:12:31;;;;;;;1.25;0.30;;;20.40;96.90;;;;;;4975228;28;20050;-89
2023/07/25 12:19:55;;;;;;;2.30;0.43;;;20.30;95.40;;;;;;4963380;28;20054;-89
2023/07/25 12:23:12;;;;;;;3.85;0.85;;;20.20;97.00;;;;;;4925301;28;20514;-87
2023/07/25 12:26:56;;;;;;;3.47;0.50;;;20.30;97.00;;;;;;5002879;28;20057;-88
2023/07/25 12:29:36;;;;;;;3.35;0.65;;;20.50;96.50;;;;;;4973673;28;20106;-86
2023/07/25 12:32:02;;;;;;;3.70;0.40;;;20.80;95.90;;;;;;4984516;28;20047;-85
2023/07/25 12:34:27;;;;;;;2.03;0.38;;;20.80;95.60;;;;;;5014302;28;20098;-87
2023/07/25 12:36:53;;;;;;;5.85;0.40;;;21.00;95.80;;;;;;5038626;28;20504;-86
2023/07/25 12:39:20;;;;;;;4.60;0.40;;;21.10;95.80;;;;;;5041942;28;20041;-84
2023/07/25 12:41:46;;;;;;;4.25;0.85;;;21.10;95.20;;;;;;5056384;28;20069;-84
2023/07/25 12:44:11;;;;;;;4.30;0.40;;;21.10;95.40;;;;;;5052164;28;20048;-84
2023/07/25 12:46:40;;;;;;;5.07;0.40;;;20.90;95.70;;;;;;5040629;28;20037;-86
2023/07/25 12:49:06;;;;;;;3.38;0.32;;;20.70;95.70;;;;;;5054054;28;20042;-87
2023/07/25 12:51:32;;;;;;;3.85;0.47;;;20.60;96.80;;;;;;5043824;28;20068;-85
2023/07/25 12:53:58;;;;;;;1.48;0.50;;;20.40;97.20;;;;;;5046378;28;20049;-86
2023/07/25 12:56:23;;;;;;;2.75;0.50;;;20.30;97.30;;;;;;5040792;28;20037;-89
2023/07/25 12:58:49;;;;;;;4.13;0.30;;;20.10;97.30;;;;;;5025318;28;20098;-88
2023/07/25 13:01:15;;;;;;;2.92;0.73;;;20.00;97.20;;;;;;5025144;28;20048;-85
2023/07/25 13:03:41;;;;;;;3.10;0.35;;;19.70;96.00;;;;;;5045162;28;20530;-87
2023/07/25 13:06:07;;;;;;;7.57;0.35;;;19.50;96.60;;;;;;5037072;28;20055;-87
2023/07/25 13:08:34;;;;;;;2.35;0.25;;;19.50;96.80;;;;;;5035376;28;20029;-84
2023/07/25 13:10:59;;;;;;;4.43;0.70;;;19.30;97.30;;;;;;5028661;28;20084;-84
2023/07/25 13:13:25;;;;;;;2.55;0.40;;;19.30;98.90;;;;;;5047178;28;20270;-83
2023/07/25 13:15:51;;;;;;;2.45;0.50;;;19.10;99.80;;;;;;5013168;28;20037;-85
2023/07/25 13:18:17;;;;;;;2.25;0.40;;;19.00;99.90;;;;;;5019691;28;20033;-83
2023/07/25 13:20:43;;;;;;;3.60;0.40;;;19.00;99.90;;;;;;5047261;28;20044;-83
2023/07/25 13:23:09;;;;;;;9.27;0.50;;;19.00;99.90;;;;;;5047851;28;20072;-83
2023/07/25 13:25:37;;;;;;;3.55;0.38;;;19.00;99.90;;;;;;5028993;28;20671;-84
2023/07/25 13:28:03;;;;;;;1.67;0.32;;;19.00;99.90;;;;;;5048606;28;20029;-84
2023/07/25 13:30:29;;;;;;;2.08;0.43;;;19.00;99.90;;;;;;5051807;28;20036;-84
2023/07/25 13:32:56;;;;;;;2.97;0.47;;;19.10;99.90;;;;;;5039019;28;20033;-85
2023/07/25 13:35:22;;;;;;;2.17;0.30;;;19.10;99.90;;;;;;5035033;28;20029;-86
2023/07/25 13:37:48;;;;;;;2.10;0.32;;;19.20;99.90;;;;;;5060263;28;20088;-83
2023/07/25 13:40:14;;;;;;;2.45;0.40;;;19.30;99.70;;;;;;5022326;28;20037;-85
2023/07/25 13:42:40;;;;;;;4.60;0.93;;;19.40;99.40;;;;;;5033617;28;20048;-83
2023/07/25 13:45:06;;;;;;;1.58;0.52;;;19.40;99.70;;;;;;5035232;28;20057;-82